createdAt,value
2022-11-03T00:00:12.325Z,73.58
2022-11-03T00:02:44.460Z,73.47
2022-11-03T00:05:35.120Z,74.48
2022-11-03T00:08:06.939Z,74.40
2022-11-03T00:10:38.615Z,74.56
2022-11-03T00:13:10.192Z,74.59
2022-11-03T00:15:49.019Z,74.96
2022-11-03T00:18:20.574Z,74.53
2022-11-03T00:20:58.776Z,74.47
2022-11-03T00:23:32.863Z,74.44
2022-11-03T00:26:17.151Z,74.42
2022-11-03T00:29:03.187Z,74.38
2022-11-03T00:31:36.898Z,74.73
2022-11-03T00:34:09.194Z,74.91
2022-11-03T00:36:43.524Z,74.71
2022-11-03T00:39:15.091Z,74.94
2022-11-03T00:41:46.667Z,75.28
2022-11-03T00:44:18.256Z,75.07
2022-11-03T00:46:52.731Z,75.31
2022-11-03T00:49:24.298Z,74.95
2022-11-03T00:51:56.187Z,75.49
2022-11-03T00:54:27.699Z,75.45
2022-11-03T00:56:59.334Z,75.35
2022-11-03T00:59:30.926Z,74.82
2022-11-03T01:02:02.737Z,75.51
2022-11-03T01:04:53.043Z,74.83
2022-11-03T01:07:24.622Z,75.07
2022-11-03T01:09:56.238Z,74.91
2022-11-03T01:12:27.880Z,75.77
2022-11-03T01:14:59.443Z,76.04
2022-11-03T01:17:31.038Z,75.67
2022-11-03T01:20:02.615Z,75.60
2022-11-03T01:22:34.240Z,75.40
2022-11-03T01:25:06.180Z,75.83
2022-11-03T01:27:37.782Z,75.49
2022-11-03T01:30:09.829Z,75.71
2022-11-03T01:32:41.375Z,75.82
2022-11-03T01:35:13.342Z,76.35
2022-11-03T01:37:47.777Z,75.59
2022-11-03T01:40:19.875Z,75.89
2022-11-03T01:42:51.411Z,76.06
2022-11-03T01:45:22.923Z,75.51
2022-11-03T01:47:54.535Z,76.26
2022-11-03T01:50:26.119Z,76.33
2022-11-03T01:52:58.715Z,76.57
2022-11-03T01:55:36.261Z,76.67
2022-11-03T01:58:19.614Z,76.46
2022-11-03T02:00:53.922Z,76.53
2022-11-03T02:03:27.004Z,76.99
2022-11-03T02:05:58.811Z,77.12
2022-11-03T02:08:39.767Z,77.46
2022-11-03T02:11:31.809Z,76.57
2022-11-03T02:14:04.815Z,76.58
2022-11-03T02:16:36.404Z,76.20
2022-11-03T02:19:24.281Z,76.25
2022-11-03T02:22:03.056Z,76.31
2022-11-03T02:24:54.288Z,76.79
2022-11-03T02:27:26.222Z,76.52
2022-11-03T02:29:58.961Z,76.83
2022-11-03T02:32:55.279Z,76.58
2022-11-03T02:35:34.195Z,76.75
2022-11-03T02:38:12.097Z,77.05
2022-11-03T02:40:48.837Z,76.76
2022-11-03T02:43:23.891Z,76.42
2022-11-03T02:45:55.991Z,76.84
2022-11-03T02:48:27.981Z,77.98
2022-11-03T02:50:59.607Z,77.91
2022-11-03T02:53:34.620Z,77.30
2022-11-03T02:56:16.818Z,77.33
2022-11-03T02:58:48.243Z,77.02
2022-11-03T03:01:32.724Z,77.09
2022-11-03T03:04:09.552Z,77.17
2022-11-03T03:06:51.061Z,77.23
2022-11-03T03:09:29.258Z,77.22
2022-11-03T03:12:03.482Z,77.27
2022-11-03T03:14:38.779Z,77.25
2022-11-03T03:17:30.912Z,77.96
2022-11-03T03:20:13.512Z,78.04
2022-11-03T03:22:51.957Z,77.98
2022-11-03T03:25:43.685Z,78.16
2022-11-03T03:28:30.011Z,77.87
2022-11-03T03:31:06.061Z,77.64
2022-11-03T03:33:40.726Z,77.54
2022-11-03T03:36:18.850Z,77.57
2022-11-03T03:38:58.951Z,77.93
2022-11-03T03:41:32.813Z,77.85
2022-11-03T03:44:07.571Z,77.80
2022-11-03T03:46:42.251Z,77.92
2022-11-03T03:49:14.552Z,77.54
2022-11-03T03:51:47.143Z,78.02
2022-11-03T03:54:18.745Z,77.52
2022-11-03T03:56:57.579Z,77.82
2022-11-03T03:59:29.161Z,77.54
2022-11-03T04:02:00.837Z,77.43
2022-11-03T04:04:32.551Z,77.99
2022-11-03T04:07:23.455Z,78.06
2022-11-03T04:09:55.065Z,78.04
2022-11-03T04:12:45.110Z,77.83
2022-11-03T04:15:35.389Z,78.24
2022-11-03T04:18:26.183Z,77.75
2022-11-03T04:21:16.468Z,77.69
2022-11-03T04:23:48.026Z,77.39
2022-11-03T04:26:22.994Z,77.68
2022-11-03T04:28:55.645Z,77.74
2022-11-03T04:31:29.037Z,77.64
2022-11-03T04:34:00.758Z,77.61
2022-11-03T04:36:32.436Z,77.91
2022-11-03T04:39:16.281Z,78.42
2022-11-03T04:41:48.274Z,78.33
2022-11-03T04:44:20.044Z,78.34
2022-11-03T04:46:53.930Z,78.40
2022-11-03T04:49:25.499Z,78.60
2022-11-03T04:51:58.271Z,78.78
2022-11-03T04:54:29.888Z,79.04
2022-11-03T04:57:09.085Z,78.53
2022-11-03T04:59:43.153Z,78.97
2022-11-03T05:02:18.449Z,78.66
2022-11-03T05:04:50.001Z,79.10
2022-11-03T05:07:28.881Z,78.82
2022-11-03T05:10:01.072Z,79.13
2022-11-03T05:12:33.487Z,79.59
2022-11-03T05:15:11.352Z,79.90
2022-11-03T05:17:42.922Z,79.69
2022-11-03T05:20:36.635Z,79.34
2022-11-03T05:23:11.182Z,79.56
2022-11-03T05:25:46.800Z,79.69
2022-11-03T05:28:28.365Z,79.66
2022-11-03T05:30:59.990Z,80.06
2022-11-03T05:33:35.490Z,79.88
2022-11-03T05:36:16.455Z,80.25
2022-11-03T05:38:48.671Z,80.22
2022-11-03T05:41:26.519Z,80.45
2022-11-03T05:44:02.321Z,80.78
2022-11-03T05:46:35.525Z,80.61
2022-11-03T05:49:07.318Z,80.64
2022-11-03T05:51:41.729Z,80.33
2022-11-03T05:54:20.836Z,80.71
2022-11-03T05:56:52.348Z,80.33
2022-11-03T05:59:30.107Z,80.75
2022-11-03T06:02:02.440Z,80.88
2022-11-03T06:04:38.708Z,80.36
2022-11-03T06:07:25.967Z,79.81
2022-11-03T06:09:58.224Z,79.34
2022-11-03T06:12:30.540Z,78.53
2022-11-03T06:15:07.263Z,78.76
2022-11-03T06:17:38.869Z,78.22
2022-11-03T06:20:18.320Z,78.85
2022-11-03T06:22:52.205Z,79.15
2022-11-03T06:25:36.672Z,79.10
2022-11-03T06:28:22.500Z,78.67
2022-11-03T06:30:54.081Z,78.41
2022-11-03T06:33:27.848Z,77.91
2022-11-03T06:36:03.304Z,77.43
2022-11-03T06:38:35.343Z,77.80
2022-11-03T06:41:20.756Z,77.47
2022-11-03T06:43:53.036Z,76.54
2022-11-03T06:46:26.409Z,76.24
2022-11-03T06:49:00.404Z,76.72
2022-11-03T06:51:35.775Z,75.61
2022-11-03T06:54:11.038Z,76.65
2022-11-03T06:56:42.659Z,75.52
2022-11-03T06:59:15.633Z,74.74
2022-11-03T07:01:50.996Z,75.08
2022-11-03T07:04:28.556Z,74.55
2022-11-03T07:07:02.817Z,75.09
2022-11-03T07:09:34.441Z,75.27
2022-11-03T07:12:17.327Z,75.94
2022-11-03T07:14:48.934Z,75.56
2022-11-03T07:17:22.609Z,76.17
2022-11-03T07:19:54.252Z,76.55
2022-11-03T07:22:27.267Z,76.49
2022-11-03T07:25:03.516Z,76.94
2022-11-03T07:27:39.823Z,76.42
2022-11-03T07:30:17.506Z,77.04
2022-11-03T07:32:52.853Z,78.39
2022-11-03T07:36:00.208Z,77.72
2022-11-03T07:38:26.901Z,77.17
2022-11-03T07:41:00.067Z,76.08
2022-11-03T07:43:35.732Z,74.94
2022-11-03T07:46:18.592Z,73.34
2022-11-03T07:48:57.061Z,72.42
2022-11-03T07:51:32.526Z,67.78
2022-11-03T07:54:18.342Z,62.56
2022-11-03T07:57:05.842Z,58.88
2022-11-03T07:59:41.135Z,56.62
2022-11-03T08:02:15.739Z,56.84
2022-11-03T08:04:47.264Z,56.52
2022-11-03T08:07:18.846Z,54.78
2022-11-03T08:09:51.286Z,54.39
2022-11-03T08:12:23.165Z,54.44
2022-11-03T08:14:54.771Z,53.87
2022-11-03T08:17:26.668Z,53.73
2022-11-03T08:19:58.481Z,52.70
2022-11-03T08:22:30.091Z,52.33
2022-11-03T08:25:01.711Z,50.57
2022-11-03T08:27:33.291Z,49.25
2022-11-03T08:30:06.882Z,48.84
2022-11-03T08:32:38.545Z,47.22
2022-11-03T08:35:11.558Z,45.88
2022-11-03T08:37:43.181Z,44.44
2022-11-03T08:40:14.899Z,43.96
2022-11-03T08:42:46.497Z,42.76
2022-11-03T08:45:18.233Z,42.88
2022-11-03T08:47:50.023Z,42.73
2022-11-03T08:50:22.431Z,42.78
2022-11-03T08:52:54.139Z,42.27
2022-11-03T08:55:25.836Z,41.22
2022-11-03T08:57:57.459Z,40.40
2022-11-03T09:00:29.064Z,39.08
2022-11-03T09:03:00.653Z,37.92
2022-11-03T09:05:32.378Z,38.22
2022-11-03T09:10:55.890Z,38.48
2022-11-03T09:13:27.483Z,37.86
2022-11-03T09:15:59.105Z,38.02
2022-11-03T09:18:30.703Z,37.10
2022-11-03T09:21:04.335Z,36.74
2022-11-03T09:23:36.119Z,35.99
2022-11-03T09:26:07.699Z,35.83
2022-11-03T09:28:39.288Z,35.33
2022-11-03T09:31:10.934Z,35.31
2022-11-03T09:33:42.584Z,35.63
2022-11-03T09:36:14.205Z,36.17
2022-11-03T09:38:45.852Z,36.27
2022-11-03T09:41:27.714Z,36.69
2022-11-03T09:44:06.962Z,37.96
2022-11-03T09:46:38.756Z,37.00
2022-11-03T09:49:15.834Z,37.27
2022-11-03T09:51:47.851Z,38.72
2022-11-03T09:54:20.014Z,39.75
2022-11-03T09:56:54.692Z,41.18
2022-11-03T09:59:26.296Z,41.55
2022-11-03T10:01:58.068Z,40.46
2022-11-03T10:04:31.242Z,39.28
2022-11-03T10:07:05.007Z,39.70
2022-11-03T10:09:39.314Z,40.01
2022-11-03T10:12:11.843Z,40.40
2022-11-03T10:14:46.284Z,40.49
2022-11-03T10:17:21.970Z,40.60
2022-11-03T10:19:56.456Z,40.86
2022-11-03T10:22:27.977Z,40.62
2022-11-03T10:25:38.672Z,40.95
2022-11-03T10:28:24.993Z,41.31
2022-11-03T10:31:14.254Z,41.32
2022-11-03T10:33:54.837Z,42.11
2022-11-03T10:36:29.128Z,43.94
2022-11-03T10:39:25.828Z,45.85
2022-11-03T10:41:59.193Z,45.89
2022-11-03T10:44:31.353Z,46.48
2022-11-03T10:47:05.128Z,44.39
2022-11-03T10:49:40.853Z,45.00
2022-11-03T10:52:22.912Z,43.92
2022-11-03T10:54:57.443Z,44.07
2022-11-03T10:57:28.993Z,44.33
2022-11-03T11:00:01.182Z,44.33
2022-11-03T11:02:36.464Z,44.46
2022-11-03T11:05:22.232Z,44.42
2022-11-03T11:07:55.443Z,45.22
2022-11-03T11:10:31.188Z,45.70
2022-11-03T11:13:25.728Z,46.39
2022-11-03T11:16:01.526Z,46.01
2022-11-03T11:18:33.168Z,46.19
2022-11-03T11:21:17.641Z,45.51
2022-11-03T11:23:49.802Z,45.28
2022-11-03T11:26:27.598Z,45.87
2022-11-03T11:29:11.638Z,45.85
2022-11-03T11:31:44.408Z,44.90
2022-11-03T11:34:19.728Z,45.69
2022-11-03T11:36:57.191Z,46.56
2022-11-03T11:39:28.812Z,46.66
2022-11-03T11:42:10.002Z,46.70
2022-11-03T11:44:49.844Z,47.51
2022-11-03T11:47:35.071Z,47.93
2022-11-03T11:50:06.739Z,48.55
2022-11-03T11:52:48.604Z,47.92
2022-11-03T11:55:32.420Z,47.58
2022-11-03T11:58:06.461Z,47.91
2022-11-03T12:00:38.075Z,48.26
2022-11-03T12:03:15.503Z,48.25
2022-11-03T12:05:50.291Z,48.43
2022-11-03T12:08:28.935Z,48.83
2022-11-03T12:11:05.652Z,49.34
2022-11-03T12:13:51.193Z,49.87
2022-11-03T12:16:43.626Z,50.12
2022-11-03T12:19:41.806Z,50.39
2022-11-03T12:22:26.186Z,50.39
2022-11-03T12:25:01.324Z,50.78
2022-11-03T12:27:33.978Z,50.86
2022-11-03T12:30:12.571Z,50.64
2022-11-03T12:32:45.161Z,51.20
2022-11-03T12:35:17.155Z,51.64
2022-11-03T12:37:49.150Z,52.00
2022-11-03T12:40:20.964Z,51.34
2022-11-03T12:42:52.579Z,51.61
2022-11-03T12:45:24.431Z,51.64
2022-11-03T12:47:56.058Z,51.92
2022-11-03T12:50:27.695Z,52.61
2022-11-03T12:52:59.302Z,52.49
2022-11-03T12:55:30.922Z,52.06
2022-11-03T12:58:03.204Z,51.88
2022-11-03T13:00:34.812Z,52.32
2022-11-03T13:03:06.856Z,52.17
2022-11-03T13:05:38.790Z,52.05
2022-11-03T13:08:11.453Z,52.10
2022-11-03T13:10:43.080Z,51.88
2022-11-03T13:13:14.665Z,51.51
2022-11-03T13:15:46.329Z,51.28
2022-11-03T13:18:17.914Z,51.06
2022-11-03T13:20:49.688Z,50.90
2022-11-03T13:23:23.157Z,50.71
2022-11-03T13:25:54.955Z,50.22
2022-11-03T13:28:29.255Z,49.75
2022-11-03T13:31:01.208Z,50.84
2022-11-03T13:33:33.015Z,51.23
2022-11-03T13:36:05.033Z,51.93
2022-11-03T13:38:36.690Z,51.90
2022-11-03T13:41:09.243Z,52.08
2022-11-03T13:43:41.080Z,52.11
2022-11-03T13:46:12.969Z,52.41
2022-11-03T13:51:36.201Z,52.17
2022-11-03T13:59:53.971Z,52.72
2022-11-03T14:05:21.403Z,52.90
2022-11-03T14:07:53.084Z,52.95
2022-11-03T14:10:24.688Z,53.06
2022-11-03T14:12:56.312Z,53.62
2022-11-03T14:15:28.230Z,53.97
2022-11-03T14:17:59.891Z,54.06
2022-11-03T14:20:32.339Z,54.46
2022-11-03T14:23:04.112Z,54.40
2022-11-03T14:25:35.882Z,54.47
2022-11-03T14:28:07.544Z,54.60
2022-11-03T14:30:39.247Z,54.72
2022-11-03T14:33:11.114Z,54.87
2022-11-03T14:35:43.232Z,55.03
2022-11-03T14:38:14.830Z,55.52
2022-11-03T14:41:04.928Z,55.50
2022-11-03T14:43:36.524Z,55.51
2022-11-03T14:46:08.149Z,55.44
2022-11-03T14:48:39.820Z,55.43
2022-11-03T14:51:11.463Z,55.71
2022-11-03T14:53:43.050Z,55.67
2022-11-03T14:56:14.695Z,56.32
2022-11-03T14:58:46.359Z,56.77
2022-11-03T15:01:18.615Z,56.68
2022-11-03T15:03:50.332Z,56.99
2022-11-03T15:06:21.997Z,57.38
2022-11-03T15:08:56.447Z,58.25
2022-11-03T15:11:28.292Z,58.58
2022-11-03T15:14:02.743Z,59.01
2022-11-03T15:16:36.688Z,59.19
2022-11-03T15:19:08.826Z,59.50
2022-11-03T15:21:40.469Z,59.77
2022-11-03T15:27:03.992Z,60.32
2022-11-03T15:29:37.502Z,60.87
2022-11-03T15:32:09.073Z,61.24
2022-11-03T15:34:41.112Z,61.07
2022-11-03T15:37:12.683Z,62.02
2022-11-03T15:39:44.350Z,61.96
2022-11-03T15:42:15.973Z,62.41
2022-11-03T15:44:47.593Z,62.48
2022-11-03T15:47:21.898Z,62.52
2022-11-03T15:49:53.727Z,62.86
2022-11-03T15:52:25.519Z,63.50
2022-11-03T15:54:57.137Z,63.17
2022-11-03T15:57:28.823Z,63.89
2022-11-03T16:00:00.644Z,63.41
2022-11-03T16:02:41.293Z,64.42
2022-11-03T16:05:14.102Z,64.40
2022-11-03T16:07:45.716Z,64.78
2022-11-03T16:10:19.350Z,65.09
2022-11-03T16:12:50.906Z,65.55
2022-11-03T16:15:22.553Z,65.60
2022-11-03T16:17:54.127Z,65.65
2022-11-03T16:20:27.657Z,65.75
2022-11-03T16:22:59.332Z,66.19
2022-11-03T16:25:30.989Z,65.98
2022-11-03T16:28:02.692Z,66.31
2022-11-03T16:30:35.495Z,66.78
2022-11-03T16:33:07.561Z,67.03
2022-11-03T16:35:39.270Z,66.99
2022-11-03T16:38:11.508Z,67.29
2022-11-03T16:40:43.511Z,67.37
2022-11-03T16:43:15.077Z,67.27
2022-11-03T16:45:46.721Z,67.62
2022-11-03T16:48:18.320Z,68.38
2022-11-03T16:50:52.860Z,68.11
2022-11-03T16:53:27.414Z,68.30
2022-11-03T16:55:59.027Z,68.69
2022-11-03T16:58:30.942Z,68.88
2022-11-03T17:01:02.618Z,69.02
2022-11-03T17:03:34.618Z,69.23
2022-11-03T17:06:14.663Z,69.30
2022-11-03T17:08:52.838Z,69.37
2022-11-03T17:11:37.130Z,69.70
2022-11-03T17:14:13.448Z,69.63
2022-11-03T17:16:48.609Z,70.16
2022-11-03T17:19:20.274Z,70.05
2022-11-03T17:21:51.940Z,70.32
2022-11-03T17:24:23.604Z,70.34
2022-11-03T17:26:58.090Z,70.42
2022-11-03T17:29:44.144Z,70.78
2022-11-03T17:32:26.865Z,70.43
2022-11-03T17:34:58.719Z,70.83
2022-11-03T17:37:30.361Z,70.88
2022-11-03T17:40:04.741Z,71.23
2022-11-03T17:42:36.442Z,71.40
2022-11-03T17:45:12.709Z,71.41
2022-11-03T17:47:44.571Z,71.29
2022-11-03T17:50:21.479Z,71.66
2022-11-03T17:52:53.929Z,71.76
2022-11-03T17:55:31.663Z,71.75
2022-11-03T17:58:04.888Z,71.84
2022-11-03T18:00:37.375Z,72.06
2022-11-03T18:03:14.985Z,72.31
2022-11-03T18:05:46.795Z,72.37
2022-11-03T18:08:20.064Z,72.77
2022-11-03T18:10:54.276Z,72.71
2022-11-03T18:13:34.773Z,72.77
2022-11-03T18:16:10.127Z,72.72
2022-11-03T18:18:43.976Z,72.62
2022-11-03T18:21:18.712Z,72.68
2022-11-03T18:23:50.712Z,72.61
2022-11-03T18:26:24.489Z,73.08
2022-11-03T18:28:56.243Z,72.84
2022-11-03T18:31:37.293Z,73.08
2022-11-03T18:34:19.670Z,73.30
2022-11-03T18:36:52.770Z,73.25
2022-11-03T18:39:26.515Z,73.20
2022-11-03T18:41:59.640Z,73.25
2022-11-03T18:44:31.504Z,73.35
2022-11-03T18:47:03.110Z,73.65
2022-11-03T18:49:35.362Z,73.36
2022-11-03T18:52:15.467Z,73.72
2022-11-03T18:54:52.301Z,73.69
2022-11-03T18:57:26.435Z,73.68
2022-11-03T18:59:58.108Z,73.89
2022-11-03T19:02:30.531Z,73.87
2022-11-03T19:05:02.196Z,73.99
2022-11-03T19:07:35.916Z,73.64
2022-11-03T19:10:10.841Z,74.05
2022-11-03T19:12:46.065Z,74.32
2022-11-03T19:15:21.243Z,74.62
2022-11-03T19:17:56.972Z,74.16
2022-11-03T19:20:28.925Z,74.34
2022-11-03T19:23:00.519Z,74.28
2022-11-03T19:25:32.286Z,74.33
2022-11-03T19:28:04.170Z,74.46
2022-11-03T19:30:35.819Z,74.41
2022-11-03T19:33:16.503Z,74.30
2022-11-03T19:35:49.579Z,74.67
2022-11-03T19:38:21.483Z,74.56
2022-11-03T19:41:25.215Z,74.58
2022-11-03T19:43:56.983Z,74.69
2022-11-03T19:46:28.992Z,74.53
2022-11-03T19:49:00.717Z,74.39
2022-11-03T19:51:36.878Z,74.37
2022-11-03T19:54:15.872Z,74.37
2022-11-03T19:56:47.802Z,74.05
2022-11-03T19:59:19.409Z,74.32
2022-11-03T20:01:51.114Z,74.23
2022-11-03T20:04:22.829Z,74.28
2022-11-03T20:06:54.585Z,74.34
2022-11-03T20:12:03.225Z,74.32
2022-11-03T20:14:35.258Z,74.66
2022-11-03T20:17:17.510Z,74.75
2022-11-03T20:19:49.415Z,74.84
2022-11-03T20:22:29.940Z,75.25
2022-11-03T20:25:04.691Z,75.07
2022-11-03T20:27:36.731Z,75.47
2022-11-03T20:30:13.942Z,75.13
2022-11-03T20:32:46.793Z,75.11
2022-11-03T20:35:27.995Z,75.20
2022-11-03T20:37:59.689Z,74.93
2022-11-03T20:40:31.981Z,74.84
2022-11-03T20:43:04.193Z,74.88
2022-11-03T20:45:35.803Z,75.16
2022-11-03T20:48:11.881Z,75.40
2022-11-03T20:50:43.464Z,75.31
2022-11-03T20:53:17.464Z,75.48
2022-11-03T20:55:49.218Z,75.35
2022-11-03T20:58:21.080Z,75.63
2022-11-03T21:00:53.061Z,75.59
2022-11-03T21:03:53.587Z,75.79
2022-11-03T21:06:20.279Z,76.40
2022-11-03T21:08:52.372Z,76.12
2022-11-03T21:11:29.760Z,76.01
2022-11-03T21:14:08.242Z,76.04
2022-11-03T21:16:58.795Z,76.23
2022-11-03T21:20:01.082Z,76.54
2022-11-03T21:22:55.904Z,76.51
2022-11-03T21:25:27.642Z,76.52
2022-11-03T21:27:59.364Z,76.54
2022-11-03T21:30:33.753Z,76.40
2022-11-03T21:33:05.355Z,76.45
2022-11-03T21:35:37.821Z,76.56
2022-11-03T21:38:11.000Z,76.85
2022-11-03T21:40:44.636Z,76.49
2022-11-03T21:43:36.391Z,76.79
2022-11-03T21:46:11.094Z,76.63
2022-11-03T21:49:01.165Z,77.16
2022-11-03T21:51:32.759Z,76.96
2022-11-03T21:54:04.545Z,77.03
2022-11-03T21:56:36.116Z,76.90
2022-11-03T21:59:07.794Z,76.78
2022-11-03T22:01:39.512Z,76.76
2022-11-03T22:04:11.203Z,77.10
2022-11-03T22:06:42.820Z,76.95
2022-11-03T22:09:14.400Z,77.09
2022-11-03T22:11:46.764Z,77.39
2022-11-03T22:14:18.668Z,77.25
2022-11-03T22:16:50.325Z,77.17
2022-11-03T22:19:41.438Z,77.43
2022-11-03T22:22:33.525Z,77.43
2022-11-03T22:25:23.991Z,77.56
2022-11-03T22:27:55.773Z,77.58
2022-11-03T22:30:45.960Z,77.85
2022-11-03T22:33:17.759Z,77.64
2022-11-03T22:36:07.972Z,77.59
2022-11-03T22:38:58.168Z,77.14
2022-11-03T22:41:48.496Z,77.24
2022-11-03T22:44:38.629Z,77.18
2022-11-03T22:47:11.317Z,77.64
2022-11-03T22:49:44.693Z,78.06
2022-11-03T22:52:16.362Z,77.98
2022-11-03T22:54:47.958Z,77.78
2022-11-03T22:57:19.551Z,77.58
2022-11-03T22:59:51.243Z,77.76
2022-11-03T23:02:22.920Z,77.59
2022-11-03T23:04:54.569Z,77.57
2022-11-03T23:07:31.541Z,77.46
2022-11-03T23:10:05.157Z,77.34
2022-11-03T23:12:36.823Z,78.12
2022-11-03T23:15:27.207Z,77.60
2022-11-03T23:18:21.471Z,78.10
2022-11-03T23:21:08.173Z,78.79
2022-11-03T23:23:58.863Z,78.59
2022-11-03T23:26:30.457Z,79.13
2022-11-03T23:29:02.052Z,79.57
2022-11-03T23:31:35.437Z,79.53
2022-11-03T23:34:08.733Z,79.12
2022-11-03T23:36:40.404Z,79.47
2022-11-03T23:39:16.990Z,79.73
2022-11-03T23:41:50.456Z,79.81
2022-11-03T23:44:22.110Z,80.03
2022-11-03T23:47:12.030Z,80.56
2022-11-03T23:49:43.583Z,80.45
2022-11-03T23:52:15.167Z,79.97
2022-11-03T23:54:46.792Z,80.25
2022-11-03T23:57:36.919Z,80.78
